Impacts TAF Board
For situational awareness. Not to be used for flight planning purposes.
IDs:

KACV - Arcata Arpt, CA, US

Issued at 1319 UTC 07 Jul 2020
Updated at 1346 UTC 07 Jul 2020
Potential Impact None Slight Moderate High
Time1253Z 07/14Z 07/15Z 07/16Z 07/17Z 07/18Z 07/19Z 07/20Z 07/21Z 07/22Z 07/23Z 08/00Z 08/01Z 08/02Z>>
Type OBS PRVL PRVL PRVL PRVL PRVL PRVL PRVL PRVL PRVL PRVL PRVL PRVL PRVL
VIS 10 >6 >6 >6 >6 >6 >6 >6 >6 >6 >6 >6 >6 >6
CIG -- -- -- -- -- -- -- -- -- -- -- -- -- 20
Cover CLR SCT SCT SCT SCT SCT SCT SCT SCT SCT SCT SCT SCT BKN
FltCat VFR VFR VFR VFR VFR VFR VFR VFR VFR VFR VFR VFR VFR MVFR
WX -- -- -- -- -- -- -- -- -- -- -- -- -- --
WDir VRB VRB VRB VRB 320 320 330 330 330 330 330 330 330 340
WSpd 0 3 3 3 9 9 12 12 12 12 12 12 12 10
WGst -- -- -- -- -- -- 22 22 22 22 22 22 22 --
Raw TAF
KACV 071319Z 0713/0812 VRB03KT P6SM FEW005 SCT025
  FM071700 32009KT P6SM SCT025
  FM071900 33012G22KT P6SM SCT025
  FM080200 34010KT P6SM BKN020
  FM080500 35005KT 5SM BR BKN007


Raw METAR
KACV 071253Z AUTO 00000KT 10SM CLR 09/07 A3010 RMK AO2 SLP199 T00940067
KACV 071153Z AUTO 09004KT 10SM CLR 10/07 A3010 RMK AO2 SLP197 T01000072 10144 20094 56006
KACV 071053Z AUTO 00000KT 10SM CLR 10/07 A3010 RMK AO2 SLP198 T01000072

METAR Board
Radar Display
Forecast Discussion
For situational awareness. Not to be used for flight planning purposes.